KBTR

Baton Rouge Metropolitan Airport

Airport
ICAO code
KBTR
IATA Code
BTR
Summary
ICAO Region
NAM
ICAO Territory
Location

Baton Rouge, Louisiana

Serving
Baton Rouge
Elevation
70 ft
Coordinates
30° 31' 60" N , 91° 8' 59" W
KCC
Airport RE
Engineered Materials Arresting System
Metar
KBTR 181753Z 20012KT 10SM BKN022 28/21 A3005 RMK AO2 SLP176 T02780211 10278 20228 56005

Description

Also known as Ryan Field, Baton Rouge Metropolitan Airport is located 4 nm north of the city of Baton Rouge, Louisiana, USA.

Airport map

Aerial View

SKYbrary Partners:

Safety knowledge contributed by: